Etusivu
METAR-TAF:

METAR-TAF

Lentoasemat :

Midland, Texas, Yhdysvallat

Leveyspiiri: 32-02-11N, Pituuspiiri: 102-06-03W, korkeus merenpinnasta: 854 m

Tämänhetkinen sää

Tämä raportti tehtiin 29 minuuttia sitten, kello 19.15 UTC
tyyntä
Lämpötila 33°C
Kosteus 32%
Ilmanpaine 1013 hPa
Näkyvyys: 16.1 km
selkeää

METAR: KMDD 241915Z AUTO 00000KT 10SM CLR 33/14 A2992 RMK AO2 T03340141

Aika: 14:44 (19:44 UTC)


TAF: puuttuu

Säähavainnot ja -ennusteet yli 4000 lentoasemalta (METAR- ja TAF-raportit).

Käytössä olevat sääasemat on merkitty karttaan keltaisilla ja punaisilla pisteillä.

Aseta hiiri pisteen päälle nähdäksesi sääaseman nimen.

Klikkaa sitten nähdäksesi säähavainnot ja -ennusteet.

Kartan vaihtaminen: klikkaa mustalla rastilla varustettuja vihreitä pisteitä, niin voit zoomata sisään; viivalla varustettua vihreää pistettä, niin voit zoomata ulos tai vihreitä nuolia, niin pääset viereisille kartoille.


METAR-TAF: